createdAt,value
2018-02-21T00:00:13.029Z,-0.67
2018-02-21T00:02:40.523Z,-0.80
2018-02-21T00:05:07.991Z,-0.89
2018-02-21T00:07:35.474Z,-0.79
2018-02-21T00:10:02.935Z,-0.59
2018-02-21T00:12:30.417Z,-0.71
2018-02-21T00:14:57.884Z,-0.95
2018-02-21T00:17:25.379Z,-1.14
2018-02-21T00:19:52.839Z,-1.31
2018-02-21T00:22:20.336Z,-1.39
2018-02-21T00:24:47.811Z,-1.33
2018-02-21T00:27:15.303Z,-1.30
2018-02-21T00:29:42.784Z,-1.25
2018-02-21T00:32:10.267Z,-1.32
2018-02-21T00:34:37.739Z,-1.42
2018-02-21T00:37:05.229Z,-1.32
2018-02-21T00:39:32.691Z,-1.40
2018-02-21T00:42:00.172Z,-1.27
2018-02-21T00:44:27.666Z,-1.02
2018-02-21T00:46:55.136Z,-1.11
2018-02-21T00:49:22.631Z,-1.02
2018-02-21T00:51:50.096Z,-1.28
2018-02-21T00:54:17.587Z,-1.40
2018-02-21T00:56:45.082Z,-1.54
2018-02-21T00:59:12.577Z,-1.56
2018-02-21T01:01:40.056Z,-1.58
2018-02-21T01:04:07.539Z,-1.63
2018-02-21T01:06:35.015Z,-1.49
2018-02-21T01:09:02.522Z,-1.54
2018-02-21T01:11:30.005Z,-1.64
2018-02-21T01:13:57.508Z,-1.66
2018-02-21T01:16:24.992Z,-1.65
2018-02-21T01:18:52.485Z,-1.75
2018-02-21T01:21:19.959Z,-1.88
2018-02-21T01:23:47.451Z,-2.04
2018-02-21T01:26:14.932Z,-2.15
2018-02-21T01:28:42.423Z,-2.24
2018-02-21T01:31:09.900Z,-1.86
2018-02-21T01:33:37.382Z,-1.91
2018-02-21T01:36:04.855Z,-1.80
2018-02-21T01:38:32.347Z,-1.96
2018-02-21T01:40:59.814Z,-2.08
2018-02-21T01:43:27.527Z,-2.23
2018-02-21T01:45:54.995Z,-2.05
2018-02-21T01:48:22.487Z,-1.98
2018-02-21T01:50:52.782Z,-2.21
2018-02-21T01:53:20.301Z,-2.40
2018-02-21T01:55:47.769Z,-2.52
2018-02-21T01:58:15.291Z,-2.46
2018-02-21T02:00:42.779Z,-1.99
2018-02-21T02:03:10.287Z,-1.78
2018-02-21T02:05:37.774Z,-2.01
2018-02-21T02:08:05.244Z,-2.04
2018-02-21T02:10:32.735Z,-2.06
2018-02-21T02:13:00.195Z,-2.15
2018-02-21T02:15:27.674Z,-2.32
2018-02-21T02:17:55.160Z,-2.48
2018-02-21T02:20:23.180Z,-2.61
2018-02-21T02:22:50.651Z,-2.51
2018-02-21T02:25:18.152Z,-2.04
2018-02-21T02:27:45.635Z,-2.08
2018-02-21T02:30:13.124Z,-2.09
2018-02-21T02:32:40.595Z,-2.32
2018-02-21T02:35:08.085Z,-2.50
2018-02-21T02:37:35.547Z,-2.65
2018-02-21T02:40:03.047Z,-2.62
2018-02-21T02:42:30.520Z,-2.45
2018-02-21T02:44:58.011Z,-2.33
2018-02-21T02:47:25.521Z,-2.44
2018-02-21T02:49:53.008Z,-2.62
2018-02-21T02:52:20.496Z,-2.71
2018-02-21T02:54:47.995Z,-2.75
2018-02-21T02:57:15.472Z,-2.79
2018-02-21T02:59:42.963Z,-2.63
2018-02-21T03:02:10.449Z,-2.50
2018-02-21T03:04:37.945Z,-2.41
2018-02-21T03:07:05.412Z,-2.46
2018-02-21T03:09:32.903Z,-2.48
2018-02-21T03:12:00.375Z,-2.59
2018-02-21T03:14:27.871Z,-2.38
2018-02-21T03:16:55.347Z,-2.14
2018-02-21T03:19:22.834Z,-2.08
2018-02-21T03:21:50.295Z,-2.06
2018-02-21T03:24:17.783Z,-2.03
2018-02-21T03:26:45.261Z,-2.09
2018-02-21T03:29:12.732Z,-2.20
2018-02-21T03:31:40.228Z,-2.14
2018-02-21T03:34:07.711Z,-2.06
2018-02-21T03:36:35.207Z,-2.02
2018-02-21T03:39:02.676Z,-2.04
2018-02-21T03:41:30.182Z,-1.81
2018-02-21T03:43:57.646Z,-1.76
2018-02-21T03:46:25.136Z,-1.70
2018-02-21T03:48:52.632Z,-1.59
2018-02-21T03:51:20.127Z,-1.63
2018-02-21T03:53:47.591Z,-1.66
2018-02-21T03:56:15.079Z,-1.52
2018-02-21T03:58:42.547Z,-1.39
2018-02-21T04:01:10.047Z,-1.39
2018-02-21T04:03:37.520Z,-1.44
2018-02-21T04:06:05.012Z,-1.44
2018-02-21T04:08:32.489Z,-1.49
2018-02-21T04:10:59.971Z,-1.49
2018-02-21T04:13:27.434Z,-1.41
2018-02-21T04:15:54.922Z,-1.42
2018-02-21T04:18:22.392Z,-1.30
2018-02-21T04:20:49.895Z,-1.29
2018-02-21T04:23:17.372Z,-1.25
2018-02-21T04:25:44.854Z,-1.25
2018-02-21T04:28:12.324Z,-1.21
2018-02-21T04:30:39.811Z,-1.17
2018-02-21T04:33:07.278Z,-1.14
2018-02-21T04:35:34.768Z,-1.03
2018-02-21T04:38:02.237Z,-0.95
2018-02-21T04:40:29.735Z,-0.92
2018-02-21T04:42:57.199Z,-0.93
2018-02-21T04:45:24.700Z,-1.02
2018-02-21T04:47:52.168Z,-0.92
2018-02-21T04:50:19.659Z,-0.91
2018-02-21T04:52:47.142Z,-0.95
2018-02-21T04:55:20.136Z,-1.03
2018-02-21T05:00:54.444Z,-0.92
2018-02-21T05:03:21.924Z,-0.88
2018-02-21T05:05:49.427Z,-0.83
2018-02-21T05:08:16.903Z,-0.86
2018-02-21T05:10:44.367Z,-0.81
2018-02-21T05:13:11.867Z,-0.75
2018-02-21T05:15:39.347Z,-0.69
2018-02-21T05:18:06.840Z,-0.77
2018-02-21T05:20:34.313Z,-0.76
2018-02-21T05:23:01.823Z,-0.77
2018-02-21T05:25:29.282Z,-0.76
2018-02-21T05:27:56.792Z,-0.76
2018-02-21T05:30:24.263Z,-0.74
2018-02-21T05:32:51.754Z,-0.73
2018-02-21T05:35:19.243Z,-0.69
2018-02-21T05:37:46.735Z,-0.60
2018-02-21T05:40:14.209Z,-0.72
2018-02-21T05:42:41.708Z,-0.60
2018-02-21T05:45:09.557Z,-0.65
2018-02-21T05:47:37.057Z,-0.52
2018-02-21T05:50:04.523Z,-0.48
2018-02-21T05:52:32.018Z,-0.44
2018-02-21T05:54:59.500Z,-0.47
2018-02-21T05:57:26.999Z,-0.54
2018-02-21T05:59:54.471Z,-0.58
2018-02-21T06:02:21.975Z,-0.72
2018-02-21T06:04:49.463Z,-0.79
2018-02-21T06:07:16.962Z,-0.64
2018-02-21T06:09:44.433Z,-0.65
2018-02-21T06:12:11.926Z,-0.68
2018-02-21T06:14:39.423Z,-0.71
2018-02-21T06:17:06.919Z,-0.66
2018-02-21T06:19:34.399Z,-0.60
2018-02-21T06:22:03.301Z,-0.76
2018-02-21T06:24:30.784Z,-0.86
2018-02-21T06:26:58.250Z,-0.89
2018-02-21T06:29:25.755Z,-0.83
2018-02-21T06:31:53.219Z,-0.86
2018-02-21T06:34:20.723Z,-0.88
2018-02-21T06:36:49.318Z,-0.90
2018-02-21T06:39:16.837Z,-0.94
2018-02-21T06:41:44.311Z,-0.92
2018-02-21T06:44:11.808Z,-1.06
2018-02-21T06:46:39.288Z,-1.08
2018-02-21T06:49:06.796Z,-1.13
2018-02-21T06:51:34.294Z,-1.13
2018-02-21T06:54:02.016Z,-1.11
2018-02-21T06:56:29.491Z,-1.13
2018-02-21T07:01:30.919Z,-1.12
2018-02-21T07:03:58.415Z,-1.11
2018-02-21T07:06:25.900Z,-1.07
2018-02-21T07:08:53.395Z,-1.12
2018-02-21T07:11:20.885Z,-1.10
2018-02-21T07:13:48.380Z,-1.08
2018-02-21T07:16:15.876Z,-1.07
2018-02-21T07:18:43.367Z,-1.03
2018-02-21T07:21:10.839Z,-1.01
2018-02-21T07:23:38.339Z,-1.04
2018-02-21T07:26:05.811Z,-0.99
2018-02-21T07:28:33.311Z,-0.90
2018-02-21T07:31:00.782Z,-0.74
2018-02-21T07:33:28.274Z,-0.68
2018-02-21T07:35:55.751Z,-0.64
2018-02-21T07:38:23.259Z,-0.63
2018-02-21T07:40:50.764Z,-0.46
2018-02-21T07:43:18.266Z,-0.43
2018-02-21T07:45:45.741Z,-0.43
2018-02-21T07:48:13.243Z,-0.46
2018-02-21T07:50:40.719Z,-0.51
2018-02-21T07:53:08.195Z,-0.49
2018-02-21T07:55:35.684Z,-0.50
2018-02-21T07:58:03.159Z,-0.56
2018-02-21T08:00:30.663Z,-0.56
2018-02-21T08:02:58.170Z,-0.50
2018-02-21T08:05:25.644Z,-0.41
2018-02-21T08:07:53.114Z,-0.30
2018-02-21T08:10:20.599Z,-0.27
2018-02-21T08:12:53.585Z,-0.18
2018-02-21T08:15:21.129Z,-0.11
2018-02-21T08:17:48.574Z,-0.02
2018-02-21T08:20:16.064Z,0.06
2018-02-21T08:22:43.523Z,0.05
2018-02-21T08:25:11.019Z,0.12
2018-02-21T08:27:38.479Z,0.23
2018-02-21T08:30:05.967Z,0.23
2018-02-21T08:32:33.427Z,0.36
2018-02-21T08:35:00.920Z,0.47
2018-02-21T08:37:28.400Z,0.59
2018-02-21T08:39:55.884Z,0.43
2018-02-21T08:42:23.343Z,0.48
2018-02-21T08:44:50.847Z,0.48
2018-02-21T08:47:18.303Z,0.67
2018-02-21T08:49:45.788Z,0.68
2018-02-21T08:52:13.271Z,0.85
2018-02-21T08:54:40.761Z,0.95
2018-02-21T08:57:08.232Z,0.87
2018-02-21T08:59:35.715Z,0.96
2018-02-21T09:02:03.183Z,0.96
2018-02-21T09:04:30.662Z,1.20
2018-02-21T09:06:58.122Z,1.30
2018-02-21T09:09:25.603Z,1.27
2018-02-21T09:11:53.070Z,1.31
2018-02-21T09:14:20.555Z,1.42
2018-02-21T09:16:48.032Z,1.51
2018-02-21T09:19:15.491Z,1.45
2018-02-21T09:21:43.734Z,1.69
2018-02-21T09:24:11.436Z,1.88
2018-02-21T09:26:39.167Z,1.74
2018-02-21T09:29:06.652Z,2.02
2018-02-21T09:31:34.376Z,2.14
2018-02-21T09:34:03.100Z,2.27
2018-02-21T09:36:30.647Z,2.47
2018-02-21T09:38:58.175Z,2.60
2018-02-21T09:41:25.888Z,2.49
2018-02-21T09:43:53.855Z,2.62
2018-02-21T09:46:21.741Z,2.67
2018-02-21T09:48:49.503Z,2.64
2018-02-21T09:51:17.015Z,2.77
2018-02-21T09:53:45.256Z,2.96
2018-02-21T09:56:12.777Z,3.11
2018-02-21T09:58:40.239Z,3.25
2018-02-21T10:01:07.752Z,3.29
2018-02-21T10:03:35.600Z,3.28
2018-02-21T10:06:03.083Z,3.43
2018-02-21T10:08:30.838Z,3.45
2018-02-21T10:10:58.339Z,3.45
2018-02-21T10:13:25.827Z,3.42
2018-02-21T10:15:53.568Z,3.38
2018-02-21T10:18:21.476Z,3.41
2018-02-21T10:20:50.314Z,3.38
2018-02-21T10:23:18.719Z,3.42
2018-02-21T10:25:47.143Z,3.38
2018-02-21T10:28:14.621Z,3.30
2018-02-21T10:30:42.116Z,3.52
2018-02-21T10:33:09.587Z,3.65
2018-02-21T10:35:37.346Z,3.82
2018-02-21T10:38:05.656Z,3.76
2018-02-21T10:40:33.372Z,3.81
2018-02-21T10:43:00.925Z,4.08
2018-02-21T10:45:28.432Z,4.24
2018-02-21T10:47:55.980Z,4.08
2018-02-21T10:50:23.868Z,4.02
2018-02-21T10:52:51.920Z,4.12
2018-02-21T10:55:19.378Z,4.38
2018-02-21T10:57:46.854Z,4.48
2018-02-21T11:00:19.858Z,4.53
2018-02-21T11:02:47.992Z,4.57
2018-02-21T11:05:15.687Z,4.46
2018-02-21T11:07:44.134Z,4.64
2018-02-21T11:10:12.060Z,4.75
2018-02-21T11:12:39.559Z,4.70
2018-02-21T11:15:07.295Z,4.58
2018-02-21T11:17:35.066Z,4.49
2018-02-21T11:20:02.980Z,4.61
2018-02-21T11:22:31.223Z,4.47
2018-02-21T11:24:59.097Z,4.58
2018-02-21T11:27:27.497Z,4.64
2018-02-21T11:29:55.005Z,4.70
2018-02-21T11:32:22.491Z,4.94
2018-02-21T11:34:50.382Z,5.10
2018-02-21T11:37:17.889Z,5.07
2018-02-21T11:39:45.423Z,5.17
2018-02-21T11:42:13.181Z,5.37
2018-02-21T11:44:40.986Z,5.23
2018-02-21T11:47:08.714Z,5.48
2018-02-21T11:49:36.204Z,5.39
2018-02-21T11:52:04.407Z,5.35
2018-02-21T11:54:31.884Z,5.31
2018-02-21T11:56:59.688Z,5.42
2018-02-21T11:59:27.650Z,5.61
2018-02-21T12:01:55.984Z,5.55
2018-02-21T12:04:23.472Z,5.56
2018-02-21T12:06:50.976Z,5.10
2018-02-21T12:09:19.292Z,5.33
2018-02-21T12:11:46.788Z,5.37
2018-02-21T12:14:14.900Z,5.12
2018-02-21T12:16:42.769Z,5.18
2018-02-21T12:19:10.546Z,5.45
2018-02-21T12:21:38.034Z,5.65
2018-02-21T12:24:06.237Z,4.93
2018-02-21T12:26:33.812Z,5.10
2018-02-21T12:29:01.305Z,4.95
2018-02-21T12:31:29.740Z,4.87
2018-02-21T12:33:57.747Z,5.19
2018-02-21T12:36:25.447Z,5.30
2018-02-21T12:38:58.497Z,5.50
2018-02-21T12:41:43.117Z,5.04
2018-02-21T12:44:11.299Z,5.05
2018-02-21T12:46:38.772Z,5.17
2018-02-21T12:49:06.263Z,5.43
2018-02-21T12:51:33.732Z,5.38
2018-02-21T12:54:01.615Z,5.39
2018-02-21T12:56:29.070Z,5.63
2018-02-21T12:58:57.485Z,5.55
2018-02-21T13:01:25.868Z,5.25
2018-02-21T13:03:53.645Z,5.31
2018-02-21T13:06:21.155Z,5.23
2018-02-21T13:08:48.684Z,5.29
2018-02-21T13:11:16.674Z,5.46
2018-02-21T13:13:44.618Z,5.44
2018-02-21T13:16:12.085Z,5.68
2018-02-21T13:18:40.363Z,5.51
2018-02-21T13:21:07.878Z,5.89
2018-02-21T13:23:35.615Z,6.16
2018-02-21T13:26:03.883Z,5.78
2018-02-21T13:28:31.592Z,6.12
2018-02-21T13:30:59.983Z,6.01
2018-02-21T13:33:27.476Z,5.64
2018-02-21T13:35:54.990Z,5.74
2018-02-21T13:38:22.483Z,6.07
2018-02-21T13:40:49.951Z,6.62
2018-02-21T13:43:17.441Z,6.86
2018-02-21T13:45:44.910Z,7.06
2018-02-21T13:48:12.395Z,7.31
2018-02-21T13:50:39.859Z,6.81
2018-02-21T13:53:07.339Z,7.37
2018-02-21T13:55:34.800Z,7.33
2018-02-21T13:58:02.310Z,8.13
2018-02-21T14:00:29.779Z,8.23
2018-02-21T14:02:57.249Z,8.18
2018-02-21T14:05:24.737Z,9.04
2018-02-21T14:07:52.207Z,9.69
2018-02-21T14:10:19.693Z,8.93
2018-02-21T14:12:47.168Z,8.29
2018-02-21T14:15:14.655Z,7.93
2018-02-21T14:17:42.115Z,7.90
2018-02-21T14:20:09.595Z,7.69
2018-02-21T14:22:37.059Z,7.02
2018-02-21T14:25:04.547Z,7.41
2018-02-21T14:27:32.033Z,7.67
2018-02-21T14:29:59.538Z,8.26
2018-02-21T14:32:27.016Z,7.96
2018-02-21T14:34:54.503Z,7.54
2018-02-21T14:37:21.979Z,7.74
2018-02-21T14:39:49.471Z,7.31
2018-02-21T14:42:16.935Z,7.96
2018-02-21T14:44:44.414Z,7.45
2018-02-21T14:47:11.883Z,8.39
2018-02-21T14:49:39.375Z,7.69
2018-02-21T14:52:06.875Z,8.20
2018-02-21T14:54:34.368Z,7.90
2018-02-21T14:57:01.836Z,8.55
2018-02-21T14:59:29.327Z,8.67
2018-02-21T15:01:56.799Z,8.82
2018-02-21T15:04:24.287Z,9.15
2018-02-21T15:06:51.751Z,9.16
2018-02-21T15:09:19.239Z,8.44
2018-02-21T15:11:46.705Z,7.87
2018-02-21T15:14:14.183Z,8.39
2018-02-21T15:16:41.655Z,8.35
2018-02-21T15:19:09.141Z,7.65
2018-02-21T15:21:36.610Z,7.46
2018-02-21T15:24:04.281Z,7.60
2018-02-21T15:26:31.807Z,8.00
2018-02-21T15:28:59.300Z,8.10
2018-02-21T15:31:26.787Z,8.21
2018-02-21T15:33:54.255Z,7.23
2018-02-21T15:36:21.751Z,6.93
2018-02-21T15:38:49.253Z,7.00
2018-02-21T15:41:16.719Z,7.08
2018-02-21T15:43:44.183Z,6.88
2018-02-21T15:46:11.675Z,7.03
2018-02-21T15:48:39.171Z,7.00
2018-02-21T15:51:06.667Z,6.80
2018-02-21T15:53:34.145Z,6.43
2018-02-21T15:56:01.642Z,6.10
2018-02-21T15:58:29.112Z,6.03
2018-02-21T16:00:56.598Z,5.83
2018-02-21T16:03:24.080Z,5.70
2018-02-21T16:05:51.583Z,5.55
2018-02-21T16:08:19.064Z,5.58
2018-02-21T16:10:46.557Z,5.48
2018-02-21T16:13:14.023Z,5.14
2018-02-21T16:15:41.520Z,5.07
2018-02-21T16:18:09.007Z,5.00
2018-02-21T16:20:36.493Z,4.92
2018-02-21T16:23:03.959Z,4.89
2018-02-21T16:25:31.444Z,4.62
2018-02-21T16:27:58.932Z,4.54
2018-02-21T16:30:26.439Z,4.46
2018-02-21T16:32:55.240Z,4.40
2018-02-21T16:35:22.744Z,4.25
2018-02-21T16:37:50.211Z,4.17
2018-02-21T16:40:17.690Z,4.00
2018-02-21T16:42:45.163Z,3.96
2018-02-21T16:45:12.675Z,3.88
2018-02-21T16:47:40.168Z,3.83
2018-02-21T16:50:07.672Z,3.72
2018-02-21T16:52:35.166Z,3.68
2018-02-21T16:55:02.664Z,3.57
2018-02-21T16:57:30.153Z,3.54
2018-02-21T16:59:57.620Z,3.60
2018-02-21T17:02:25.099Z,3.57
2018-02-21T17:04:52.575Z,3.43
2018-02-21T17:07:20.063Z,3.42
2018-02-21T17:09:47.551Z,3.26
2018-02-21T17:12:15.075Z,3.31
2018-02-21T17:14:43.431Z,3.34
2018-02-21T17:17:10.945Z,3.30
2018-02-21T17:19:38.424Z,3.27
2018-02-21T17:22:05.923Z,3.29
2018-02-21T17:24:33.425Z,3.17
2018-02-21T17:27:00.922Z,3.09
2018-02-21T17:29:28.412Z,3.10
2018-02-21T17:31:55.944Z,3.06
2018-02-21T17:34:23.411Z,3.07
2018-02-21T17:36:51.147Z,2.99
2018-02-21T17:39:18.651Z,2.99
2018-02-21T17:41:46.143Z,3.00
2018-02-21T17:44:15.087Z,2.95
2018-02-21T17:46:42.984Z,2.74
2018-02-21T17:49:10.507Z,2.76
2018-02-21T17:51:38.021Z,2.69
2018-02-21T17:54:05.501Z,2.69
2018-02-21T17:56:33.000Z,2.70
2018-02-21T17:59:00.484Z,2.56
2018-02-21T18:01:28.045Z,2.58
2018-02-21T18:03:55.530Z,2.58
2018-02-21T18:06:23.164Z,2.61
2018-02-21T18:08:50.668Z,2.47
2018-02-21T18:11:18.158Z,2.47
2018-02-21T18:13:45.636Z,2.50
2018-02-21T18:16:13.136Z,2.41
2018-02-21T18:18:40.603Z,2.45
2018-02-21T18:21:08.075Z,2.41
2018-02-21T18:23:35.567Z,2.35
2018-02-21T18:26:03.039Z,2.24
2018-02-21T18:28:30.525Z,2.37
2018-02-21T18:30:58.000Z,2.34
2018-02-21T18:33:27.491Z,2.34
2018-02-21T18:35:54.966Z,2.38
2018-02-21T18:38:22.444Z,2.39
2018-02-21T18:40:49.913Z,2.39
2018-02-21T18:43:17.427Z,2.36
2018-02-21T18:48:26.911Z,2.39
2018-02-21T18:50:54.371Z,2.32
2018-02-21T18:53:21.874Z,2.25
2018-02-21T18:55:49.341Z,2.06
2018-02-21T18:58:16.830Z,2.10
2018-02-21T19:00:44.401Z,2.06
2018-02-21T19:03:11.889Z,1.99
2018-02-21T19:05:39.371Z,2.01
2018-02-21T19:08:06.877Z,2.04
2018-02-21T19:10:34.349Z,1.97
2018-02-21T19:13:01.864Z,1.93
2018-02-21T19:15:29.380Z,1.78
2018-02-21T19:17:56.899Z,1.78
2018-02-21T19:20:24.362Z,1.82
2018-02-21T19:22:51.861Z,1.81
2018-02-21T19:25:19.325Z,1.77
2018-02-21T19:27:46.808Z,1.81
2018-02-21T19:30:15.007Z,1.74
2018-02-21T19:32:42.504Z,1.76
2018-02-21T19:35:09.964Z,1.68
2018-02-21T19:37:37.444Z,1.46
2018-02-21T19:40:04.907Z,1.45
2018-02-21T19:42:32.389Z,1.48
2018-02-21T19:44:59.858Z,1.47
2018-02-21T19:47:27.335Z,1.52
2018-02-21T19:49:54.820Z,1.38
2018-02-21T19:52:22.301Z,1.22
2018-02-21T19:54:49.793Z,1.09
2018-02-21T19:57:17.259Z,0.99
2018-02-21T19:59:44.747Z,1.13
2018-02-21T20:02:12.206Z,1.19
2018-02-21T20:04:39.692Z,1.19
2018-02-21T20:07:07.159Z,1.09
2018-02-21T20:09:34.653Z,1.05
2018-02-21T20:12:02.136Z,1.04
2018-02-21T20:14:29.615Z,0.99
2018-02-21T20:16:57.080Z,0.90
2018-02-21T20:19:24.562Z,0.84
2018-02-21T20:21:52.032Z,0.82
2018-02-21T20:24:19.576Z,0.91
2018-02-21T20:26:47.035Z,0.82
2018-02-21T20:29:14.526Z,0.80
2018-02-21T20:31:41.991Z,0.71
2018-02-21T20:34:09.480Z,0.48
2018-02-21T20:36:36.954Z,0.60
2018-02-21T20:39:04.467Z,0.57
2018-02-21T20:41:31.940Z,0.40
2018-02-21T20:43:59.429Z,0.24
2018-02-21T20:46:26.903Z,0.21
2018-02-21T20:48:54.387Z,0.08
2018-02-21T20:51:21.846Z,0.03
2018-02-21T20:53:49.343Z,0.14
2018-02-21T20:56:16.816Z,0.08
2018-02-21T20:58:44.302Z,-0.10
2018-02-21T21:01:11.779Z,-0.04
2018-02-21T21:03:39.262Z,0.02
2018-02-21T21:06:06.731Z,-0.14
2018-02-21T21:08:34.256Z,-0.21
2018-02-21T21:11:01.732Z,-0.21
2018-02-21T21:13:29.207Z,-0.27
2018-02-21T21:15:56.715Z,-0.28
2018-02-21T21:18:24.187Z,-0.19
2018-02-21T21:20:51.687Z,-0.11
2018-02-21T21:23:19.154Z,-0.24
2018-02-21T21:25:46.654Z,-0.28
2018-02-21T21:28:14.189Z,-0.40
2018-02-21T21:30:41.671Z,-0.49
2018-02-21T21:33:09.153Z,-0.50
2018-02-21T21:35:36.651Z,-0.50
2018-02-21T21:38:04.127Z,-0.47
2018-02-21T21:40:31.627Z,-0.28
2018-02-21T21:42:59.095Z,-0.28
2018-02-21T21:45:26.591Z,-0.28
2018-02-21T21:47:54.066Z,-0.29
2018-02-21T21:50:21.555Z,-0.22
2018-02-21T21:52:49.035Z,-0.24
2018-02-21T21:55:16.524Z,-0.21
2018-02-21T21:57:44.015Z,-0.24
2018-02-21T22:00:11.503Z,-0.33
2018-02-21T22:02:38.983Z,-0.30
2018-02-21T22:05:06.475Z,-0.34
2018-02-21T22:07:33.938Z,-0.48
2018-02-21T22:10:01.434Z,-0.52
2018-02-21T22:12:28.906Z,-0.49
2018-02-21T22:14:56.452Z,-0.58
2018-02-21T22:17:23.927Z,-0.72
2018-02-21T22:19:51.420Z,-0.72
2018-02-21T22:22:19.631Z,-0.70
2018-02-21T22:24:47.119Z,-0.58
2018-02-21T22:27:14.580Z,-0.65
2018-02-21T22:29:42.124Z,-0.63
2018-02-21T22:32:09.595Z,-0.64
2018-02-21T22:34:37.075Z,-0.70
2018-02-21T22:37:04.566Z,-0.80
2018-02-21T22:39:32.035Z,-0.82
2018-02-21T22:41:59.515Z,-0.87
2018-02-21T22:44:27.008Z,-0.76
2018-02-21T22:46:54.495Z,-0.70
2018-02-21T22:49:21.972Z,-0.74
2018-02-21T22:51:49.459Z,-0.75
2018-02-21T22:54:16.931Z,-0.72
2018-02-21T22:56:44.414Z,-0.64
2018-02-21T22:59:11.882Z,-0.66
2018-02-21T23:01:39.375Z,-0.68
2018-02-21T23:04:06.851Z,-0.76
2018-02-21T23:06:34.691Z,-0.78
2018-02-21T23:09:02.154Z,-0.81
2018-02-21T23:11:29.659Z,-0.82
2018-02-21T23:13:57.152Z,-0.78
2018-02-21T23:16:24.651Z,-0.72
2018-02-21T23:18:52.127Z,-0.77
2018-02-21T23:21:19.610Z,-0.74
2018-02-21T23:23:47.082Z,-0.74
2018-02-21T23:26:14.570Z,-0.76
2018-02-21T23:28:42.035Z,-0.74
2018-02-21T23:31:09.519Z,-0.68
2018-02-21T23:33:36.988Z,-0.68
2018-02-21T23:36:04.480Z,-0.71
2018-02-21T23:38:31.957Z,-0.64
2018-02-21T23:40:59.462Z,-0.61
2018-02-21T23:43:26.925Z,-0.47
2018-02-21T23:45:54.403Z,-0.48
2018-02-21T23:48:21.876Z,-0.48
2018-02-21T23:50:49.384Z,-0.50
2018-02-21T23:53:16.863Z,-0.54
2018-02-21T23:55:44.367Z,-0.57
2018-02-21T23:58:11.844Z,-0.62
